Terminal Aerodrome Forecast
Issued by NWS St Louis, MO

Home | Current Version | Previous Version | Text Only | Print | Product List | Glossary On
Versions: 1 2 3 4 5 6 7 8 9 10 11 12
671
FTUS43 KLSX 241125
TAFCOU
TAF
KCOU 241125Z 2412/2512 18009KT P6SM SCT250
     FM241600 21016G25KT P6SM FEW250
     FM250000 24010KT P6SM BKN120
     FM250200 26009KT P6SM BKN200
     FM250500 31008KT P6SM SCT150=

USA.gov is the U.S. government's official web portal to all federal, state and local government web resources and services.